Time;durP1;ratioP1;P1;durP2;ratioP2;P2;SDS_P1;SDS_P2;PMS_P1;PMS_P2;Temp;Humidity;BMP_temperature;BMP_pressure;BME280_temperature;BME280_humidity;BME280_pressure;Samples;Min_cycle;Max_cycle;Signal;HPM_P1;HPM_P2
2021/09/06 00:01:27;;;;;;;18.48;13.32;;;;;;;;;;5038454;28;20032;-70
2021/09/06 00:03:53;;;;;;;20.90;14.70;;;;;;;;;;5032237;28;20072;-70
2021/09/06 00:06:19;;;;;;;20.38;13.82;;;;;;;;;;5031561;28;20053;-70
2021/09/06 00:08:45;;;;;;;17.90;13.48;;;;;;;;;;5032541;28;20393;-70
2021/09/06 00:11:12;;;;;;;16.58;13.27;;;;;;;;;;5033526;28;20018;-70
2021/09/06 00:13:40;;;;;;;20.25;13.68;;;;;;;;;;5033406;28;20500;-70
2021/09/06 00:16:06;;;;;;;15.35;12.68;;;;;;;;;;5033630;28;20025;-70
2021/09/06 00:18:32;;;;;;;19.58;13.45;;;;;;;;;;5031710;28;20482;-70
2021/09/06 00:21:01;;;;;;;16.27;12.40;;;;;;;;;;5045337;28;20385;-70
2021/09/06 00:23:27;;;;;;;21.50;13.45;;;;;;;;;;5033468;28;20032;-70
2021/09/06 00:25:54;;;;;;;16.52;12.57;;;;;;;;;;5031590;28;20026;-70
2021/09/06 00:28:20;;;;;;;19.65;13.70;;;;;;;;;;5031729;28;20060;-70
2021/09/06 00:30:46;;;;;;;18.52;12.55;;;;;;;;;;5038544;28;20103;-70
2021/09/06 00:33:12;;;;;;;16.08;12.40;;;;;;;;;;5031495;28;20503;-70
2021/09/06 00:35:38;;;;;;;16.02;12.48;;;;;;;;;;5031340;28;20063;-70
2021/09/06 00:38:04;;;;;;;20.80;11.77;;;;;;;;;;5031774;28;20021;-70
2021/09/06 00:40:30;;;;;;;18.90;13.25;;;;;;;;;;5034202;28;20112;-69
2021/09/06 00:42:57;;;;;;;17.88;12.90;;;;;;;;;;5031817;28;20123;-70
2021/09/06 00:45:23;;;;;;;18.83;13.35;;;;;;;;;;5030700;28;20017;-69
2021/09/06 00:47:49;;;;;;;17.83;12.63;;;;;;;;;;5032038;28;20375;-70
2021/09/06 00:50:16;;;;;;;17.10;13.10;;;;;;;;;;5039162;28;20036;-70
2021/09/06 00:52:44;;;;;;;19.55;13.98;;;;;;;;;;5039969;28;20033;-69
2021/09/06 00:55:10;;;;;;;19.58;13.43;;;;;;;;;;5031739;28;20026;-69
2021/09/06 00:57:36;;;;;;;17.63;12.68;;;;;;;;;;5031328;28;20025;-69
2021/09/06 01:00:04;;;;;;;20.83;13.32;;;;;;;;;;5035566;28;20457;-69
2021/09/06 01:02:30;;;;;;;18.25;13.30;;;;;;;;;;5033300;28;20038;-69
2021/09/06 01:04:56;;;;;;;20.58;13.32;;;;;;;;;;5031517;28;20030;-70
2021/09/06 01:07:22;;;;;;;18.15;13.52;;;;;;;;;;5031507;28;20528;-69
2021/09/06 01:09:48;;;;;;;20.40;12.68;;;;;;;;;;5031179;28;20032;-70
2021/09/06 01:12:14;;;;;;;16.52;13.05;;;;;;;;;;5031253;28;20047;-69
2021/09/06 01:14:40;;;;;;;18.23;13.18;;;;;;;;;;5031614;28;20026;-70
2021/09/06 01:17:06;;;;;;;18.08;12.45;;;;;;;;;;5032974;28;20021;-70
2021/09/06 01:19:32;;;;;;;19.23;13.32;;;;;;;;;;5031566;28;20026;-70
2021/09/06 01:21:58;;;;;;;16.30;12.15;;;;;;;;;;5047017;28;20380;-70
2021/09/06 01:24:24;;;;;;;17.35;13.38;;;;;;;;;;5030308;28;20025;-70
2021/09/06 01:26:50;;;;;;;18.27;13.20;;;;;;;;;;5031396;28;20111;-70
2021/09/06 01:29:16;;;;;;;18.23;12.77;;;;;;;;;;5033138;28;20079;-70
2021/09/06 01:31:42;;;;;;;16.20;13.20;;;;;;;;;;5037836;28;20029;-70
2021/09/06 01:34:10;;;;;;;17.08;14.18;;;;;;;;;;5031223;28;20028;-70
2021/09/06 01:36:36;;;;;;;18.23;13.85;;;;;;;;;;5031122;28;20100;-70
2021/09/06 01:39:03;;;;;;;29.50;16.30;;;;;;;;;;5032040;28;20052;-69
2021/09/06 01:41:29;;;;;;;42.13;19.42;;;;;;;;;;5037034;28;20026;-69
2021/09/06 01:43:55;;;;;;;31.83;18.13;;;;;;;;;;5034968;28;20083;-69
2021/09/06 01:46:21;;;;;;;25.27;17.38;;;;;;;;;;5034728;28;20029;-69
2021/09/06 01:48:48;;;;;;;28.05;16.48;;;;;;;;;;5034941;28;20472;-69
2021/09/06 01:51:14;;;;;;;37.67;17.45;;;;;;;;;;5047350;28;20021;-68
2021/09/06 01:53:40;;;;;;;24.25;16.25;;;;;;;;;;5036649;28;20033;-69
2021/09/06 01:56:06;;;;;;;37.35;19.60;;;;;;;;;;5034129;28;20104;-69
2021/09/06 01:58:32;;;;;;;34.72;19.30;;;;;;;;;;5034858;28;20424;-69
2021/09/06 02:00:58;;;;;;;31.67;19.90;;;;;;;;;;5041286;28;20017;-69
2021/09/06 02:03:24;;;;;;;44.78;22.58;;;;;;;;;;5033974;28;20495;-69
2021/09/06 02:05:50;;;;;;;51.55;25.23;;;;;;;;;;5034892;28;20022;-69
2021/09/06 02:08:16;;;;;;;52.05;28.08;;;;;;;;;;5035341;28;20132;-69
2021/09/06 02:10:42;;;;;;;39.85;27.67;;;;;;;;;;5036889;28;20100;-69
2021/09/06 02:13:08;;;;;;;41.95;27.42;;;;;;;;;;5034814;28;20038;-69
2021/09/06 02:15:34;;;;;;;36.40;25.55;;;;;;;;;;5034388;28;20484;-69
2021/09/06 02:18:00;;;;;;;42.88;27.45;;;;;;;;;;5033901;28;20033;-69
2021/09/06 02:20:26;;;;;;;39.05;26.83;;;;;;;;;;5042963;28;20071;-69
2021/09/06 02:22:52;;;;;;;29.02;19.95;;;;;;;;;;5042797;28;20438;-69
2021/09/06 02:25:18;;;;;;;26.60;18.50;;;;;;;;;;5034495;28;20025;-69
2021/09/06 02:27:44;;;;;;;29.73;19.10;;;;;;;;;;5034975;28;20057;-69
2021/09/06 02:30:10;;;;;;;27.85;18.40;;;;;;;;;;5039031;28;20025;-69
2021/09/06 02:32:36;;;;;;;27.85;20.58;;;;;;;;;;5036588;28;20033;-69
2021/09/06 02:35:02;;;;;;;31.77;22.02;;;;;;;;;;5035162;28;20435;-69
2021/09/06 02:37:28;;;;;;;36.75;25.88;;;;;;;;;;5035507;28;20053;-69
2021/09/06 02:39:54;;;;;;;40.03;25.35;;;;;;;;;;5036043;28;20384;-69
2021/09/06 02:42:20;;;;;;;40.38;28.05;;;;;;;;;;5033207;28;20096;-69
2021/09/06 02:44:46;;;;;;;38.75;27.90;;;;;;;;;;5034014;28;20032;-69
2021/09/06 02:47:12;;;;;;;38.38;27.50;;;;;;;;;;5035235;28;20025;-69
2021/09/06 02:49:38;;;;;;;38.17;27.85;;;;;;;;;;5034812;28;20033;-69
2021/09/06 02:52:04;;;;;;;41.70;29.10;;;;;;;;;;5046767;28;20025;-69
2021/09/06 02:54:30;;;;;;;44.45;29.67;;;;;;;;;;5033402;28;20029;-69
2021/09/06 02:56:56;;;;;;;40.38;29.17;;;;;;;;;;5033421;28;20172;-69
2021/09/06 02:59:22;;;;;;;43.10;28.25;;;;;;;;;;5033666;28;20021;-69
2021/09/06 03:01:48;;;;;;;40.75;28.05;;;;;;;;;;5039355;28;20029;-69
2021/09/06 03:04:14;;;;;;;39.55;27.48;;;;;;;;;;5033476;28;20104;-64
2021/09/06 03:06:40;;;;;;;40.88;27.45;;;;;;;;;;5033848;28;20033;-64
2021/09/06 03:09:06;;;;;;;37.13;26.02;;;;;;;;;;5032921;28;20037;-64
2021/09/06 03:11:32;;;;;;;38.47;25.58;;;;;;;;;;5035325;28;20049;-64
2021/09/06 03:13:58;;;;;;;40.13;26.90;;;;;;;;;;5033351;28;20045;-64
2021/09/06 03:16:25;;;;;;;38.35;26.15;;;;;;;;;;5032878;28;20484;-64
2021/09/06 03:18:51;;;;;;;36.87;26.40;;;;;;;;;;5033138;28;20108;-64
2021/09/06 03:21:17;;;;;;;39.15;28.58;;;;;;;;;;5047125;28;20050;-64
2021/09/06 03:23:43;;;;;;;40.65;28.48;;;;;;;;;;5034832;28;20037;-64
2021/09/06 03:26:10;;;;;;;38.97;26.05;;;;;;;;;;5034079;28;20025;-64
2021/09/06 03:28:36;;;;;;;32.05;24.65;;;;;;;;;;5034427;28;20049;-64
2021/09/06 03:31:03;;;;;;;34.20;24.35;;;;;;;;;;5040959;28;20479;-64
2021/09/06 03:33:29;;;;;;;35.47;24.23;;;;;;;;;;5032348;28;20021;-63
2021/09/06 03:35:55;;;;;;;36.20;25.70;;;;;;;;;;5034164;28;20028;-62
2021/09/06 03:38:21;;;;;;;38.90;28.10;;;;;;;;;;5032977;28;20100;-64
2021/09/06 03:40:47;;;;;;;37.47;27.15;;;;;;;;;;5034252;28;20025;-60
2021/09/06 03:43:13;;;;;;;40.33;28.33;;;;;;;;;;5031932;28;20033;-60
2021/09/06 03:45:39;;;;;;;42.63;28.80;;;;;;;;;;5031998;28;20434;-60
2021/09/06 03:48:05;;;;;;;37.95;27.17;;;;;;;;;;5031125;28;20508;-60
2021/09/06 03:50:31;;;;;;;33.63;25.20;;;;;;;;;;5032293;28;20070;-60
2021/09/06 03:52:57;;;;;;;36.55;25.50;;;;;;;;;;5032250;28;20083;-60
2021/09/06 03:55:23;;;;;;;31.83;24.20;;;;;;;;;;5032565;28;20025;-60
2021/09/06 03:57:49;;;;;;;36.13;23.95;;;;;;;;;;5032142;28;20567;-60
2021/09/06 04:00:15;;;;;;;34.28;25.30;;;;;;;;;;5043163;28;20029;-60
2021/09/06 04:02:41;;;;;;;35.95;25.65;;;;;;;;;;5031432;28;20386;-60
2021/09/06 04:05:07;;;;;;;35.28;26.42;;;;;;;;;;5033742;28;20025;-58
2021/09/06 04:07:33;;;;;;;35.92;25.60;;;;;;;;;;5032042;28;20032;-63
2021/09/06 04:09:59;;;;;;;35.83;25.80;;;;;;;;;;5034128;28;20017;-63
2021/09/06 04:12:25;;;;;;;45.58;29.13;;;;;;;;;;5031678;28;20030;-63
2021/09/06 04:14:51;;;;;;;46.00;28.23;;;;;;;;;;5032053;28;20548;-64
2021/09/06 04:17:18;;;;;;;39.00;26.92;;;;;;;;;;5031406;28;20052;-63
2021/09/06 04:19:44;;;;;;;39.40;27.35;;;;;;;;;;5033535;28;20029;-64
2021/09/06 04:22:10;;;;;;;36.60;26.75;;;;;;;;;;5044463;28;20048;-63
2021/09/06 04:24:36;;;;;;;34.95;25.05;;;;;;;;;;5032052;28;20038;-63
2021/09/06 04:27:02;;;;;;;33.15;25.02;;;;;;;;;;5032667;28;20048;-63
2021/09/06 04:29:28;;;;;;;38.80;26.60;;;;;;;;;;5032055;28;20117;-63
2021/09/06 04:31:54;;;;;;;43.60;28.08;;;;;;;;;;5039300;28;20104;-63
2021/09/06 04:34:20;;;;;;;44.53;28.80;;;;;;;;;;5033201;28;20519;-63
2021/09/06 04:36:46;;;;;;;37.20;26.00;;;;;;;;;;5033428;28;20037;-63
2021/09/06 04:39:12;;;;;;;39.97;27.17;;;;;;;;;;5031400;28;20029;-63
2021/09/06 04:41:39;;;;;;;40.30;28.02;;;;;;;;;;5032167;28;20401;-63
2021/09/06 04:44:05;;;;;;;41.40;29.33;;;;;;;;;;5033370;28;20416;-63
2021/09/06 04:46:31;;;;;;;41.03;27.27;;;;;;;;;;5031849;28;20486;-62
2021/09/06 04:48:57;;;;;;;38.05;27.23;;;;;;;;;;5041507;28;20688;-63
2021/09/06 04:51:23;;;;;;;42.20;28.60;;;;;;;;;;5031720;28;20022;-63
2021/09/06 04:53:49;;;;;;;39.80;27.50;;;;;;;;;;5032233;28;20026;-62
2021/09/06 04:56:15;;;;;;;40.75;28.60;;;;;;;;;;5032094;28;20026;-62
2021/09/06 04:58:41;;;;;;;43.03;29.60;;;;;;;;;;5032326;28;20026;-62
2021/09/06 05:01:07;;;;;;;44.63;29.63;;;;;;;;;;5032328;28;20018;-62
2021/09/06 05:03:33;;;;;;;38.85;28.10;;;;;;;;;;5031891;28;20060;-62
2021/09/06 05:05:59;;;;;;;42.92;29.00;;;;;;;;;;5031258;28;20457;-62
2021/09/06 05:08:29;;;;;;;44.67;30.73;;;;;;;;;;5031842;28;20025;-62
2021/09/06 05:10:55;;;;;;;40.75;28.58;;;;;;;;;;5032245;28;20096;-62
2021/09/06 05:13:22;;;;;;;42.40;29.67;;;;;;;;;;5032432;28;20090;-62
2021/09/06 05:15:48;;;;;;;48.85;30.58;;;;;;;;;;5035118;28;20468;-62
2021/09/06 05:18:14;;;;;;;45.13;30.50;;;;;;;;;;5035351;28;20025;-62
2021/09/06 05:20:40;;;;;;;45.47;30.40;;;;;;;;;;5035961;28;20045;-62
2021/09/06 05:23:07;;;;;;;37.95;28.25;;;;;;;;;;5037290;28;20033;-62
2021/09/06 05:25:34;;;;;;;39.67;28.45;;;;;;;;;;5035546;28;20017;-62
2021/09/06 05:28:00;;;;;;;40.17;28.63;;;;;;;;;;5042506;28;20103;-62
2021/09/06 05:30:26;;;;;;;48.47;30.13;;;;;;;;;;5033679;28;20032;-62
2021/09/06 05:32:52;;;;;;;39.88;28.58;;;;;;;;;;5035753;28;20461;-62
2021/09/06 05:35:18;;;;;;;39.65;27.25;;;;;;;;;;5035800;28;20058;-62
2021/09/06 05:37:44;;;;;;;38.50;26.88;;;;;;;;;;5035966;28;20014;-62
2021/09/06 05:40:10;;;;;;;40.58;29.08;;;;;;;;;;5042715;28;20384;-62
2021/09/06 05:42:36;;;;;;;40.20;28.67;;;;;;;;;;5035246;28;20040;-63
2021/09/06 05:45:03;;;;;;;38.20;28.55;;;;;;;;;;5036554;28;20018;-62
2021/09/06 05:47:29;;;;;;;44.72;30.85;;;;;;;;;;5035591;28;20473;-63
2021/09/06 05:49:55;;;;;;;40.65;27.75;;;;;;;;;;5034968;28;20040;-63
2021/09/06 05:52:21;;;;;;;41.90;28.88;;;;;;;;;;5035254;28;20080;-63
2021/09/06 05:54:47;;;;;;;35.88;26.48;;;;;;;;;;5035665;28;20029;-62
2021/09/06 05:57:13;;;;;;;39.08;26.88;;;;;;;;;;5034500;28;20481;-63
2021/09/06 05:59:39;;;;;;;39.63;29.45;;;;;;;;;;5034695;28;20026;-69
2021/09/06 06:02:05;;;;;;;42.13;30.50;;;;;;;;;;5036193;28;20021;-61
2021/09/06 06:04:31;;;;;;;43.00;29.58;;;;;;;;;;5036043;28;20117;-63
2021/09/06 06:06:57;;;;;;;42.28;29.38;;;;;;;;;;5035334;28;20052;-63
2021/09/06 06:09:23;;;;;;;42.83;28.25;;;;;;;;;;5034089;28;20329;-63
2021/09/06 06:11:49;;;;;;;41.53;28.30;;;;;;;;;;5035256;28;20111;-63
2021/09/06 06:14:15;;;;;;;42.20;27.83;;;;;;;;;;5034677;28;20057;-63
2021/09/06 06:16:41;;;;;;;35.33;25.88;;;;;;;;;;5035013;28;20378;-63
2021/09/06 06:19:07;;;;;;;30.55;24.58;;;;;;;;;;5034777;28;20083;-63
2021/09/06 06:21:34;;;;;;;36.40;23.70;;;;;;;;;;5035012;28;20034;-63
2021/09/06 06:24:01;;;;;;;58.22;25.40;;;;;;;;;;5033615;28;20116;-62
2021/09/06 06:26:27;;;;;;;34.67;26.05;;;;;;;;;;5033504;28;20017;-63
2021/09/06 06:28:53;;;;;;;34.40;25.55;;;;;;;;;;5035875;28;20037;-63
2021/09/06 06:31:19;;;;;;;32.15;23.02;;;;;;;;;;5034476;28;20029;-63
2021/09/06 06:33:46;;;;;;;27.13;20.45;;;;;;;;;;5035861;28;20036;-63
2021/09/06 06:36:12;;;;;;;26.95;20.75;;;;;;;;;;5034503;28;20018;-63
2021/09/06 06:38:38;;;;;;;27.67;20.05;;;;;;;;;;5036136;28;20118;-63
2021/09/06 06:41:04;;;;;;;26.23;19.23;;;;;;;;;;5035666;28;20071;-63
2021/09/06 06:43:30;;;;;;;22.80;19.08;;;;;;;;;;5041207;28;20067;-63
2021/09/06 06:45:57;;;;;;;25.20;18.55;;;;;;;;;;5036149;28;20021;-63
2021/09/06 06:48:23;;;;;;;23.95;17.85;;;;;;;;;;5034083;28;20036;-63
2021/09/06 06:50:49;;;;;;;20.65;16.73;;;;;;;;;;5036020;28;20485;-64
2021/09/06 06:53:16;;;;;;;19.85;15.52;;;;;;;;;;5034497;28;20028;-64
2021/09/06 06:55:42;;;;;;;21.52;16.10;;;;;;;;;;5033569;28;20041;-63
2021/09/06 06:58:08;;;;;;;21.42;15.38;;;;;;;;;;5034706;28;20044;-63
2021/09/06 07:00:34;;;;;;;20.40;15.25;;;;;;;;;;5034564;28;20108;-63
2021/09/06 07:03:00;;;;;;;24.67;15.75;;;;;;;;;;5033260;28;20116;-63
2021/09/06 07:05:26;;;;;;;22.52;16.48;;;;;;;;;;5034222;28;20026;-63
2021/09/06 07:07:52;;;;;;;23.95;17.80;;;;;;;;;;5039716;28;20392;-63
2021/09/06 07:10:18;;;;;;;20.83;16.45;;;;;;;;;;5035663;28;20022;-62
2021/09/06 07:12:44;;;;;;;23.23;16.85;;;;;;;;;;5034158;28;22747;-63
2021/09/06 07:15:11;;;;;;;24.92;15.73;;;;;;;;;;5033378;28;20021;-62
2021/09/06 07:17:37;;;;;;;20.67;15.38;;;;;;;;;;5033920;28;20082;-62
2021/09/06 07:20:04;;;;;;;20.20;15.25;;;;;;;;;;5035536;28;20452;-63
2021/09/06 07:22:30;;;;;;;21.20;14.70;;;;;;;;;;5033165;28;20112;-63
2021/09/06 07:24:56;;;;;;;21.75;14.90;;;;;;;;;;5033673;28;20021;-63
2021/09/06 07:27:22;;;;;;;21.33;14.88;;;;;;;;;;5032716;28;20510;-63
2021/09/06 07:29:49;;;;;;;17.77;14.07;;;;;;;;;;5034089;28;20543;-63
2021/09/06 07:32:15;;;;;;;16.92;13.32;;;;;;;;;;5034883;28;20033;-63
2021/09/06 07:34:41;;;;;;;19.90;13.27;;;;;;;;;;5034840;28;20116;-63
2021/09/06 07:37:07;;;;;;;18.10;12.23;;;;;;;;;;5035136;28;20493;-63
2021/09/06 07:39:34;;;;;;;17.58;13.23;;;;;;;;;;5032863;28;20025;-63
2021/09/06 07:42:00;;;;;;;17.27;12.38;;;;;;;;;;5034439;28;20044;-62
2021/09/06 07:44:27;;;;;;;19.08;13.20;;;;;;;;;;5035038;28;20026;-62
2021/09/06 07:46:53;;;;;;;19.67;13.77;;;;;;;;;;5034777;28;20022;-63
2021/09/06 07:49:19;;;;;;;17.65;12.73;;;;;;;;;;5033528;28;20021;-63
2021/09/06 07:51:52;;;;;;;16.10;12.43;;;;;;;;;;5017323;28;20431;-63
2021/09/06 07:54:19;;;;;;;18.25;11.90;;;;;;;;;;5028476;28;20384;-63
2021/09/06 07:56:47;;;;;;;18.80;11.65;;;;;;;;;;5035080;28;20033;-63
2021/09/06 07:59:13;;;;;;;15.55;11.27;;;;;;;;;;5034415;28;20480;-63
2021/09/06 08:01:39;;;;;;;17.60;11.70;;;;;;;;;;5033116;28;20037;-63
2021/09/06 08:04:05;;;;;;;17.85;11.50;;;;;;;;;;5032827;28;20026;-63
2021/09/06 08:06:31;;;;;;;16.35;11.68;;;;;;;;;;5032214;28;20441;-63
2021/09/06 08:08:58;;;;;;;16.45;11.63;;;;;;;;;;5030292;28;20037;-63
2021/09/06 08:11:24;;;;;;;15.93;11.65;;;;;;;;;;5032670;28;20024;-63
2021/09/06 08:13:49;;;;;;;15.10;11.77;;;;;;;;;;5032994;28;20112;-63
2021/09/06 08:16:15;;;;;;;17.33;11.77;;;;;;;;;;5032920;28;20513;-62
2021/09/06 08:18:41;;;;;;;16.20;12.00;;;;;;;;;;5032744;28;20041;-63
2021/09/06 08:21:08;;;;;;;15.25;11.73;;;;;;;;;;5032334;28;20024;-62
2021/09/06 08:23:34;;;;;;;17.55;11.30;;;;;;;;;;5032463;28;20087;-62
2021/09/06 08:26:00;;;;;;;14.32;10.57;;;;;;;;;;5032923;28;20025;-62
2021/09/06 08:28:26;;;;;;;13.82;10.35;;;;;;;;;;5032726;28;20103;-63
2021/09/06 08:30:52;;;;;;;14.43;10.52;;;;;;;;;;5032515;28;20381;-62
2021/09/06 08:33:18;;;;;;;15.13;10.43;;;;;;;;;;5031663;28;20022;-62
2021/09/06 08:35:46;;;;;;;16.38;10.82;;;;;;;;;;5034299;28;20065;-62
2021/09/06 08:38:12;;;;;;;15.88;10.85;;;;;;;;;;5033823;28;20048;-62
2021/09/06 08:40:39;;;;;;;16.58;11.15;;;;;;;;;;5033747;28;20595;-62
2021/09/06 08:43:05;;;;;;;16.38;11.60;;;;;;;;;;5034243;28;20037;-63
2021/09/06 08:45:36;;;;;;;17.63;9.45;;;;;;;;;;5032087;28;20452;-62
2021/09/06 08:48:02;;;;;;;14.88;10.35;;;;;;;;;;5042993;28;20061;-62
2021/09/06 08:50:28;;;;;;;14.57;9.65;;;;;;;;;;5036865;28;20029;-62
2021/09/06 08:52:54;;;;;;;15.48;9.50;;;;;;;;;;5044420;28;20139;-63
2021/09/06 08:55:20;;;;;;;14.80;10.60;;;;;;;;;;5040740;28;20142;-62
2021/09/06 08:57:46;;;;;;;16.52;10.50;;;;;;;;;;5022997;28;20021;-63
2021/09/06 09:00:13;;;;;;;17.13;10.20;;;;;;;;;;5038466;28;20067;-61
2021/09/06 09:02:42;;;;;;;12.98;9.88;;;;;;;;;;5038976;28;20101;-63
2021/09/06 09:05:09;;;;;;;16.80;11.15;;;;;;;;;;5038772;28;20033;-64
2021/09/06 09:07:37;;;;;;;17.77;11.77;;;;;;;;;;5038994;28;20022;-61
2021/09/06 09:10:04;;;;;;;15.00;10.48;;;;;;;;;;5040352;28;20021;-62
2021/09/06 09:12:30;;;;;;;17.02;11.63;;;;;;;;;;5038897;28;20029;-61
2021/09/06 09:14:57;;;;;;;15.98;10.98;;;;;;;;;;5038416;28;20030;-61
2021/09/06 09:17:23;;;;;;;16.02;12.30;;;;;;;;;;5040540;28;20075;-61
2021/09/06 09:19:50;;;;;;;15.40;10.80;;;;;;;;;;5038297;28;20105;-62
2021/09/06 09:22:18;;;;;;;15.38;11.48;;;;;;;;;;5038783;28;20069;-62
2021/09/06 09:24:55;;;;;;;18.88;12.57;;;;;;;;;;5038995;28;20105;-62
2021/09/06 09:27:29;;;;;;;20.02;11.63;;;;;;;;;;5033799;28;20060;-62
2021/09/06 09:29:55;;;;;;;14.15;10.52;;;;;;;;;;5040052;28;20500;-63
2021/09/06 09:32:21;;;;;;;14.90;11.02;;;;;;;;;;5038790;28;20029;-62
2021/09/06 09:34:47;;;;;;;15.45;11.05;;;;;;;;;;5038584;28;20473;-61
2021/09/06 09:37:23;;;;;;;18.35;11.38;;;;;;;;;;5038423;28;20022;-62
2021/09/06 09:39:53;;;;;;;14.70;10.05;;;;;;;;;;5023456;28;20028;-62
2021/09/06 09:42:20;;;;;;;16.73;10.13;;;;;;;;;;5033992;28;20136;-62
2021/09/06 09:44:47;;;;;;;13.88;10.48;;;;;;;;;;5038494;28;20461;-62
2021/09/06 09:47:13;;;;;;;13.60;9.68;;;;;;;;;;5038736;28;20485;-62
2021/09/06 09:49:41;;;;;;;14.77;11.10;;;;;;;;;;5039445;28;20499;-62
2021/09/06 09:52:07;;;;;;;17.40;10.43;;;;;;;;;;5039886;28;20025;-63
2021/09/06 09:54:34;;;;;;;14.32;10.32;;;;;;;;;;5038077;28;20030;-63
2021/09/06 09:57:00;;;;;;;12.80;8.57;;;;;;;;;;5038319;28;20029;-62
2021/09/06 09:59:26;;;;;;;14.98;8.48;;;;;;;;;;5039836;28;20032;-62
2021/09/06 10:01:54;;;;;;;12.95;7.40;;;;;;;;;;5034370;28;20400;-62
2021/09/06 10:04:22;;;;;;;10.07;7.35;;;;;;;;;;5034837;28;20473;-62
2021/09/06 10:06:49;;;;;;;13.20;8.10;;;;;;;;;;5020022;28;20021;-62
2021/09/06 10:09:15;;;;;;;11.73;7.30;;;;;;;;;;5034488;28;20079;-62
2021/09/06 10:11:42;;;;;;;11.18;7.13;;;;;;;;;;5035354;28;20112;-62
2021/09/06 10:14:15;;;;;;;12.95;7.90;;;;;;;;;;5035378;28;20029;-62
2021/09/06 10:16:41;;;;;;;12.48;8.95;;;;;;;;;;5041895;28;20387;-62
2021/09/06 10:19:09;;;;;;;11.27;7.88;;;;;;;;;;5034671;28;20029;-62
2021/09/06 10:21:44;;;;;;;11.50;8.25;;;;;;;;;;5035273;28;20030;-62
2021/09/06 10:24:17;;;;;;;12.18;7.97;;;;;;;;;;5034409;28;20420;-62
2021/09/06 10:26:44;;;;;;;12.52;7.93;;;;;;;;;;5035192;28;20504;-62
2021/09/06 10:29:14;;;;;;;11.98;8.10;;;;;;;;;;5034969;28;20119;-62
2021/09/06 10:31:41;;;;;;;13.05;7.82;;;;;;;;;;5030999;28;20043;-61
2021/09/06 10:34:09;;;;;;;14.00;8.20;;;;;;;;;;5020810;28;20057;-62
2021/09/06 10:36:35;;;;;;;14.32;8.05;;;;;;;;;;5033024;28;20469;-62
2021/09/06 10:39:04;;;;;;;11.93;7.75;;;;;;;;;;5031567;28;20041;-61
2021/09/06 10:41:30;;;;;;;11.70;7.50;;;;;;;;;;5031360;28;20028;-62
2021/09/06 10:44:00;;;;;;;12.40;8.27;;;;;;;;;;5032092;28;20041;-61
2021/09/06 10:46:29;;;;;;;11.65;7.25;;;;;;;;;;5019899;28;20018;-62
2021/09/06 10:48:55;;;;;;;12.55;8.02;;;;;;;;;;5034562;28;20434;-62
2021/09/06 10:51:28;;;;;;;13.40;7.80;;;;;;;;;;5039938;28;20043;-61
2021/09/06 10:53:58;;;;;;;12.77;8.20;;;;;;;;;;5048196;28;20044;-61
2021/09/06 10:56:29;;;;;;;10.05;7.07;;;;;;;;;;5036429;28;20582;-61
2021/09/06 10:58:55;;;;;;;11.68;7.65;;;;;;;;;;5034624;28;20053;-61
2021/09/06 11:01:21;;;;;;;10.32;7.75;;;;;;;;;;5039759;28;20009;-61
2021/09/06 11:03:49;;;;;;;11.50;8.35;;;;;;;;;;5033737;28;20040;-61
2021/09/06 11:06:15;;;;;;;15.65;8.38;;;;;;;;;;5031298;28;20026;-61
2021/09/06 11:08:41;;;;;;;11.68;7.65;;;;;;;;;;5034222;28;20074;-68
2021/09/06 11:11:09;;;;;;;10.75;7.75;;;;;;;;;;5038157;28;20025;-68
2021/09/06 11:13:36;;;;;;;13.50;7.75;;;;;;;;;;5043616;28;20035;-68
2021/09/06 11:16:03;;;;;;;12.05;8.45;;;;;;;;;;5041395;28;20109;-68
2021/09/06 11:18:33;;;;;;;12.48;8.55;;;;;;;;;;5033317;28;20033;-68
2021/09/06 11:21:00;;;;;;;14.38;8.50;;;;;;;;;;5034703;28;20032;-68
2021/09/06 11:23:33;;;;;;;12.73;8.07;;;;;;;;;;5034907;28;20405;-68
2021/09/06 11:25:59;;;;;;;12.52;7.60;;;;;;;;;;5033105;28;20037;-68
2021/09/06 11:28:25;;;;;;;12.23;7.55;;;;;;;;;;5033234;28;20412;-68
2021/09/06 11:30:51;;;;;;;10.93;6.93;;;;;;;;;;5035460;28;20029;-68
2021/09/06 11:33:18;;;;;;;13.80;8.00;;;;;;;;;;5031017;28;20029;-68
2021/09/06 11:35:45;;;;;;;12.23;7.25;;;;;;;;;;5034559;28;20520;-68
2021/09/06 11:38:12;;;;;;;13.15;7.75;;;;;;;;;;5032707;28;20018;-68
2021/09/06 11:40:38;;;;;;;13.75;7.93;;;;;;;;;;5033974;28;20039;-68
2021/09/06 11:43:05;;;;;;;11.95;8.15;;;;;;;;;;5046230;28;20401;-68
2021/09/06 11:45:31;;;;;;;11.53;8.00;;;;;;;;;;5032187;28;20105;-68
2021/09/06 11:48:04;;;;;;;12.35;8.70;;;;;;;;;;5032367;28;20044;-68
2021/09/06 11:50:31;;;;;;;10.88;8.18;;;;;;;;;;5034340;28;20071;-68
2021/09/06 11:53:01;;;;;;;11.80;7.80;;;;;;;;;;5039837;28;20025;-68
2021/09/06 11:55:27;;;;;;;11.43;7.90;;;;;;;;;;5034718;28;20079;-68
2021/09/06 11:57:53;;;;;;;14.30;8.95;;;;;;;;;;5034544;28;20039;-68
2021/09/06 12:00:20;;;;;;;12.43;7.65;;;;;;;;;;5031300;28;20041;-68
2021/09/06 12:02:52;;;;;;;14.20;8.00;;;;;;;;;;5034355;28;20044;-68
2021/09/06 12:05:19;;;;;;;12.32;7.93;;;;;;;;;;5032924;28;20025;-68
2021/09/06 12:07:46;;;;;;;12.30;7.80;;;;;;;;;;5034464;28;20021;-68
2021/09/06 12:10:22;;;;;;;13.20;8.55;;;;;;;;;;5032588;28;20033;-68
2021/09/06 12:12:56;;;;;;;14.38;8.50;;;;;;;;;;5018370;28;20113;-68
2021/09/06 12:15:22;;;;;;;11.52;7.90;;;;;;;;;;5028424;28;20033;-68
2021/09/06 12:17:48;;;;;;;13.48;8.13;;;;;;;;;;5032762;28;20397;-68
2021/09/06 12:20:14;;;;;;;11.55;7.70;;;;;;;;;;5032738;28;20026;-68
2021/09/06 12:22:40;;;;;;;14.00;8.38;;;;;;;;;;5032516;28;20041;-68
2021/09/06 12:25:07;;;;;;;11.75;8.32;;;;;;;;;;5032222;28;20112;-67
2021/09/06 12:27:36;;;;;;;14.40;8.90;;;;;;;;;;5031877;28;20044;-70
2021/09/06 12:30:03;;;;;;;11.90;8.05;;;;;;;;;;5029906;28;20266;-68
2021/09/06 12:32:29;;;;;;;14.53;8.73;;;;;;;;;;5034008;28;20071;-68
2021/09/06 12:34:55;;;;;;;18.23;8.63;;;;;;;;;;5032171;28;20469;-68
2021/09/06 12:37:22;;;;;;;13.07;8.88;;;;;;;;;;5032335;28;20033;-67
2021/09/06 12:39:48;;;;;;;15.57;8.63;;;;;;;;;;5033874;28;20024;-68
2021/09/06 12:42:14;;;;;;;12.68;8.07;;;;;;;;;;5031361;28;20116;-69
2021/09/06 12:44:40;;;;;;;12.27;8.38;;;;;;;;;;5031675;28;20033;-68
2021/09/06 12:47:06;;;;;;;11.43;7.80;;;;;;;;;;5033886;28;20068;-68
2021/09/06 12:49:32;;;;;;;13.75;8.13;;;;;;;;;;5032499;28;20035;-68
2021/09/06 12:51:59;;;;;;;15.48;8.27;;;;;;;;;;5033431;28;20025;-68
2021/09/06 12:54:26;;;;;;;12.40;7.97;;;;;;;;;;5031710;28;20022;-68
2021/09/06 12:56:53;;;;;;;11.23;8.70;;;;;;;;;;5033807;28;20595;-68
2021/09/06 12:59:19;;;;;;;10.70;7.78;;;;;;;;;;5033150;28;20469;-68
2021/09/06 13:01:47;;;;;;;13.93;8.55;;;;;;;;;;5033639;28;20044;-68
2021/09/06 13:04:13;;;;;;;11.90;7.95;;;;;;;;;;5031555;28;20484;-68
2021/09/06 13:06:39;;;;;;;13.52;7.68;;;;;;;;;;5032415;28;20384;-68
2021/09/06 13:09:05;;;;;;;13.10;8.02;;;;;;;;;;5032852;28;20033;-70
2021/09/06 13:11:32;;;;;;;14.38;8.15;;;;;;;;;;5032740;28;20112;-68
2021/09/06 13:13:58;;;;;;;12.55;7.90;;;;;;;;;;5031845;28;20513;-69
2021/09/06 13:16:24;;;;;;;11.98;8.27;;;;;;;;;;5032277;28;20461;-70
2021/09/06 13:18:50;;;;;;;12.20;8.70;;;;;;;;;;5032408;28;20064;-68
2021/09/06 13:21:17;;;;;;;12.07;8.13;;;;;;;;;;5031648;28;20024;-68
2021/09/06 13:23:43;;;;;;;12.60;7.93;;;;;;;;;;5031847;28;20036;-68
2021/09/06 13:26:13;;;;;;;12.45;8.43;;;;;;;;;;5031279;28;20473;-68
2021/09/06 13:28:40;;;;;;;13.70;8.93;;;;;;;;;;5031760;28;20451;-69
2021/09/06 13:31:06;;;;;;;13.25;8.60;;;;;;;;;;5032305;28;20761;-68
2021/09/06 13:33:34;;;;;;;15.50;9.02;;;;;;;;;;5032110;28;20033;-68
2021/09/06 13:36:00;;;;;;;15.50;8.55;;;;;;;;;;5032290;28;20377;-69
2021/09/06 13:38:28;;;;;;;13.60;8.50;;;;;;;;;;5035605;28;20487;-68
2021/09/06 13:40:54;;;;;;;12.80;9.27;;;;;;;;;;5035176;28;20024;-69
2021/09/06 13:43:20;;;;;;;12.60;9.15;;;;;;;;;;5035416;28;20038;-68
2021/09/06 13:45:46;;;;;;;14.75;9.27;;;;;;;;;;5035732;28;20032;-68
2021/09/06 13:48:12;;;;;;;14.50;8.90;;;;;;;;;;5034828;28;20476;-68
2021/09/06 13:50:38;;;;;;;14.48;9.18;;;;;;;;;;5036673;28;20025;-68
2021/09/06 13:53:04;;;;;;;16.98;9.32;;;;;;;;;;5034732;28;20426;-68
2021/09/06 13:55:30;;;;;;;13.57;8.02;;;;;;;;;;5035172;28;20021;-68
2021/09/06 13:57:56;;;;;;;13.77;8.93;;;;;;;;;;5036961;28;20037;-68
2021/09/06 14:00:22;;;;;;;13.38;8.70;;;;;;;;;;5034194;28;20021;-68
2021/09/06 14:02:47;;;;;;;14.48;9.15;;;;;;;;;;5036920;28;20461;-68
2021/09/06 14:05:14;;;;;;;12.07;8.05;;;;;;;;;;5034795;28;20040;-68
2021/09/06 14:07:40;;;;;;;13.43;8.77;;;;;;;;;;5034931;28;20103;-68
2021/09/06 14:10:06;;;;;;;13.57;8.70;;;;;;;;;;5036562;28;20033;-68
2021/09/06 14:12:32;;;;;;;13.50;8.80;;;;;;;;;;5035039;28;20029;-68
2021/09/06 14:14:58;;;;;;;12.35;8.80;;;;;;;;;;5032227;28;20079;-68
2021/09/06 14:17:24;;;;;;;15.13;9.27;;;;;;;;;;5034763;28;20025;-68